SULAYMANIYAH INTERNATIONAL AIRPORT
  • SulyAir
  • SulyAir
1 1
Arrival

ArrivalsMore >>

Departure

DeparturesMore >>

TAF

TAF ORSU 242300Z 2500/2524 34004KT CAVOK
  BECMG 2504/2506 14012KT 8000 SCT045 SCT080
  TEMPO 2509/2512 20015G25KT 5000 BLDU
  PROB30 2512/2515 5000 -TSRA FEW035CB=

METARs

METAR ORSU 250400Z VRB02KT CAVOK 21/11 Q1010=